createdAt,value
2019-02-22T00:02:00.278Z,92.70
2019-02-22T00:07:03.010Z,92.80
2019-02-22T00:12:04.422Z,92.80
2019-02-22T00:17:05.816Z,92.80
2019-02-22T00:22:07.114Z,92.80
2019-02-22T00:27:08.661Z,92.90
2019-02-22T00:32:10.997Z,92.90
2019-02-22T00:37:12.397Z,92.80
2019-02-22T00:42:13.758Z,92.90
2019-02-22T00:47:15.107Z,92.90
2019-02-22T00:52:16.428Z,92.90
2019-02-22T00:57:17.824Z,93.00
2019-02-22T01:02:21.484Z,93.00
2019-02-22T01:07:22.899Z,93.00
2019-02-22T01:12:24.180Z,93.10
2019-02-22T01:17:27.005Z,93.10
2019-02-22T01:22:28.924Z,93.10
2019-02-22T01:27:30.267Z,93.10
2019-02-22T01:32:31.835Z,93.20
2019-02-22T01:37:35.239Z,93.20
2019-02-22T01:42:36.551Z,93.30
2019-02-22T01:47:37.985Z,93.40
2019-02-22T01:52:39.507Z,93.40
2019-02-22T01:57:40.851Z,93.40
2019-02-22T02:02:42.378Z,93.50
2019-02-22T02:07:43.855Z,93.50
2019-02-22T02:12:45.412Z,93.70
2019-02-22T02:17:46.984Z,93.70
2019-02-22T02:22:48.553Z,93.70
2019-02-22T02:28:00.428Z,93.80
2019-02-22T02:33:02.617Z,93.80
2019-02-22T02:38:04.878Z,93.80
2019-02-22T02:43:06.322Z,93.80
2019-02-22T02:48:07.702Z,94.20
2019-02-22T02:53:09.080Z,93.80
2019-02-22T02:58:10.619Z,93.80
2019-02-22T03:03:12.049Z,93.80
2019-02-22T03:08:14.355Z,93.80
2019-02-22T03:13:17.372Z,93.80
2019-02-22T03:18:18.731Z,93.90
2019-02-22T03:23:20.041Z,93.80
2019-02-22T03:28:21.378Z,93.90
2019-02-22T03:33:22.663Z,93.90
2019-02-22T03:38:24.006Z,93.90
2019-02-22T03:43:25.315Z,93.90
2019-02-22T03:48:28.807Z,93.90
2019-02-22T03:53:32.353Z,93.90
2019-02-22T03:58:35.116Z,94.00
2019-02-22T04:03:37.523Z,94.00
2019-02-22T04:08:38.968Z,93.90
2019-02-22T04:13:40.704Z,93.90
2019-02-22T04:18:42.158Z,93.90
2019-02-22T04:23:43.911Z,93.90
2019-02-22T04:28:45.396Z,93.90
2019-02-22T04:33:46.698Z,93.90
2019-02-22T04:38:48.046Z,94.00
2019-02-22T04:43:51.265Z,93.90
2019-02-22T04:48:52.569Z,94.00
2019-02-22T04:53:54.029Z,94.00
2019-02-22T04:58:55.480Z,93.90
2019-02-22T05:03:56.909Z,93.90
2019-02-22T05:08:58.441Z,93.90
2019-02-22T05:14:18.482Z,93.90
2019-02-22T05:19:22.109Z,93.90
2019-02-22T05:24:23.555Z,93.90
2019-02-22T05:29:24.937Z,93.90
2019-02-22T05:34:26.354Z,93.80
2019-02-22T05:39:27.639Z,93.90
2019-02-22T05:44:29.051Z,93.80
2019-02-22T05:49:30.760Z,93.80
2019-02-22T05:54:33.270Z,93.80
2019-02-22T05:59:34.581Z,93.80
2019-02-22T06:04:36.016Z,93.80
2019-02-22T06:09:37.655Z,93.80
2019-02-22T06:14:43.392Z,93.70
2019-02-22T06:19:45.128Z,93.70
2019-02-22T06:24:46.495Z,93.70
2019-02-22T06:29:49.898Z,93.60
2019-02-22T06:34:52.265Z,93.60
2019-02-22T06:39:53.673Z,93.60
2019-02-22T06:44:55.058Z,93.60
2019-02-22T06:49:56.939Z,93.60
2019-02-22T06:54:58.457Z,93.60
2019-02-22T07:00:00.847Z,93.60
2019-02-22T07:05:04.422Z,93.60
2019-02-22T07:10:09.090Z,93.50
2019-02-22T07:15:10.752Z,93.60
2019-02-22T07:20:12.421Z,93.60
2019-02-22T07:25:13.963Z,93.60
2019-02-22T07:30:15.286Z,93.70
2019-02-22T07:35:16.806Z,93.60
2019-02-22T07:40:21.535Z,93.60
2019-02-22T07:45:22.943Z,93.60
2019-02-22T07:50:24.355Z,93.60
2019-02-22T07:55:25.746Z,93.60
2019-02-22T08:00:27.169Z,93.60
2019-02-22T08:05:28.952Z,93.60
2019-02-22T08:10:30.506Z,93.50
2019-02-22T08:15:31.881Z,93.60
2019-02-22T08:20:33.241Z,93.50
2019-02-22T08:25:34.584Z,93.40
2019-02-22T08:30:37.921Z,93.50
2019-02-22T08:35:39.728Z,93.30
2019-02-22T08:40:41.195Z,93.20
2019-02-22T08:45:42.534Z,93.10
2019-02-22T08:50:49.270Z,93.00
2019-02-22T08:55:52.591Z,92.90
2019-02-22T09:00:54.410Z,92.90
2019-02-22T09:05:55.866Z,92.80
2019-02-22T09:11:00.829Z,93.10
2019-02-22T09:16:00.995Z,92.60
2019-02-22T09:21:03.074Z,92.50
2019-02-22T09:26:04.518Z,92.70
2019-02-22T09:31:07.281Z,92.30
2019-02-22T09:36:08.618Z,92.30
2019-02-22T09:41:10.158Z,92.30
2019-02-22T09:46:11.547Z,92.30
2019-02-22T09:51:13.130Z,92.40
2019-02-22T09:56:14.538Z,92.30
2019-02-22T10:01:15.827Z,92.20
2019-02-22T10:06:17.410Z,91.90
2019-02-22T10:11:18.948Z,91.60
2019-02-22T10:16:20.313Z,91.40
2019-02-22T10:21:21.885Z,91.30
2019-02-22T10:26:23.568Z,91.10
2019-02-22T10:31:25.156Z,91.00
2019-02-22T10:36:26.606Z,90.90
2019-02-22T10:41:30.128Z,90.70
2019-02-22T10:46:33.196Z,90.50
2019-02-22T10:51:34.620Z,90.30
2019-02-22T10:56:36.092Z,90.20
2019-02-22T11:01:37.604Z,90.00
2019-02-22T11:06:39.512Z,89.80
2019-02-22T11:11:42.990Z,89.20
2019-02-22T11:16:44.284Z,89.00
2019-02-22T11:21:45.612Z,88.50
2019-02-22T11:26:47.037Z,88.30
2019-02-22T11:31:48.812Z,88.10
2019-02-22T11:36:50.377Z,88.00
2019-02-22T11:41:51.700Z,87.60
2019-02-22T11:46:53.167Z,87.30
2019-02-22T11:51:55.984Z,87.50
2019-02-22T11:56:57.658Z,86.40
2019-02-22T12:01:59.450Z,86.10
2019-02-22T12:12:21.329Z,85.70
2019-02-22T12:17:22.733Z,85.20
2019-02-22T12:22:24.264Z,85.00
2019-02-22T12:27:25.574Z,84.80
2019-02-22T12:32:27.618Z,84.10
2019-02-22T12:37:29.096Z,84.20
2019-02-22T12:42:30.536Z,83.80
2019-02-22T12:47:32.053Z,83.50
2019-02-22T12:52:35.517Z,83.30
2019-02-22T12:57:37.044Z,83.20
2019-02-22T13:02:38.366Z,83.20
2019-02-22T13:07:39.880Z,82.80
2019-02-22T13:12:41.437Z,82.70
2019-02-22T13:17:42.806Z,82.60
2019-02-22T13:22:44.117Z,82.40
2019-02-22T13:27:45.496Z,82.50
2019-02-22T13:32:47.151Z,82.70
2019-02-22T13:37:49.310Z,83.00
2019-02-22T13:42:50.765Z,83.50
2019-02-22T13:47:52.512Z,83.80
2019-02-22T13:52:55.504Z,84.20
2019-02-22T13:57:56.924Z,84.40
2019-02-22T14:02:58.327Z,84.80
2019-02-22T14:08:00.109Z,84.90
2019-02-22T14:13:01.465Z,84.80
2019-02-22T14:18:03.200Z,84.90
2019-02-22T14:23:22.962Z,85.00
2019-02-22T14:28:24.429Z,84.80
2019-02-22T14:33:25.816Z,84.60
2019-02-22T14:38:27.081Z,84.60
2019-02-22T14:43:28.398Z,84.70
2019-02-22T14:48:29.693Z,84.80
2019-02-22T14:53:31.356Z,85.00
2019-02-22T14:58:33.010Z,85.00
2019-02-22T15:03:35.007Z,85.10
2019-02-22T15:08:39.528Z,85.30
2019-02-22T15:13:40.937Z,85.60
2019-02-22T15:18:42.498Z,85.80
2019-02-22T15:23:44.953Z,85.80
2019-02-22T15:28:46.266Z,85.70
2019-02-22T15:33:47.595Z,85.80
2019-02-22T15:38:48.993Z,86.10
2019-02-22T15:43:50.363Z,86.00
2019-02-22T15:48:51.690Z,86.20
2019-02-22T15:53:53.143Z,86.50
2019-02-22T15:58:54.450Z,86.60
2019-02-22T16:03:57.794Z,86.80
2019-02-22T16:08:59.183Z,87.10
2019-02-22T16:14:02.169Z,87.40
2019-02-22T16:19:04.110Z,87.50
2019-02-22T16:24:05.560Z,87.70
2019-02-22T16:29:07.136Z,87.70
2019-02-22T16:34:08.432Z,87.80
2019-02-22T16:39:10.178Z,87.90
2019-02-22T16:44:11.622Z,87.80
2019-02-22T16:49:12.944Z,88.00
2019-02-22T16:54:14.305Z,88.10
2019-02-22T16:59:16.530Z,88.20
2019-02-22T17:04:18.869Z,88.30
2019-02-22T17:09:20.394Z,89.60
2019-02-22T17:14:21.697Z,88.80
2019-02-22T17:19:23.475Z,88.80
2019-02-22T17:24:25.175Z,89.10
2019-02-22T17:29:26.596Z,89.10
2019-02-22T17:34:28.015Z,89.20
2019-02-22T17:39:29.329Z,89.50
2019-02-22T17:44:32.627Z,89.60
2019-02-22T17:49:34.163Z,89.60
2019-02-22T17:54:35.523Z,89.70
2019-02-22T17:59:36.992Z,90.00
2019-02-22T18:04:38.390Z,89.90
2019-02-22T18:09:39.805Z,90.00
2019-02-22T18:14:41.149Z,90.50
2019-02-22T18:19:42.489Z,90.10
2019-02-22T18:24:44.192Z,90.10
2019-02-22T18:29:45.609Z,90.10
2019-02-22T18:34:47.077Z,90.20
2019-02-22T18:39:48.418Z,90.20
2019-02-22T18:44:49.913Z,90.20
2019-02-22T18:49:51.290Z,90.10
2019-02-22T18:54:55.454Z,90.00
2019-02-22T18:59:56.979Z,90.10
2019-02-22T19:04:58.361Z,90.20
2019-02-22T19:09:59.679Z,90.20
2019-02-22T19:15:01.542Z,90.30
2019-02-22T19:20:08.431Z,90.50
2019-02-22T19:25:10.201Z,90.50
2019-02-22T19:30:16.014Z,90.70
2019-02-22T19:35:17.548Z,90.80
2019-02-22T19:40:25.474Z,91.00
2019-02-22T19:45:27.387Z,91.50
2019-02-22T19:50:28.918Z,91.20
2019-02-22T19:55:30.400Z,91.30
2019-02-22T20:00:32.010Z,91.40
2019-02-22T20:05:33.596Z,91.60
2019-02-22T20:10:35.089Z,91.70
2019-02-22T20:15:36.566Z,91.90
2019-02-22T20:20:38.173Z,92.10
2019-02-22T20:25:42.934Z,92.40
2019-02-22T20:30:45.202Z,91.90
2019-02-22T20:35:46.652Z,91.90
2019-02-22T20:40:51.169Z,92.00
2019-02-22T20:45:52.733Z,92.10
2019-02-22T20:50:54.049Z,92.20
2019-02-22T20:55:55.520Z,92.30
2019-02-22T21:00:56.929Z,92.40
2019-02-22T21:05:58.246Z,92.60
2019-02-22T21:10:59.826Z,92.50
2019-02-22T21:16:01.255Z,92.50
2019-02-22T21:21:02.595Z,92.50
2019-02-22T21:26:03.935Z,92.70
2019-02-22T21:31:05.251Z,92.80
2019-02-22T21:36:07.533Z,93.20
2019-02-22T21:41:27.864Z,93.10
2019-02-22T21:46:29.343Z,93.10
2019-02-22T21:51:30.724Z,93.30
2019-02-22T21:56:32.179Z,93.50
2019-02-22T22:01:33.602Z,93.40
2019-02-22T22:06:35.110Z,93.50
2019-02-22T22:11:36.508Z,93.40
2019-02-22T22:16:38.038Z,93.40
2019-02-22T22:21:39.942Z,93.40
2019-02-22T22:26:41.264Z,93.40
2019-02-22T22:31:42.747Z,93.40
2019-02-22T22:36:44.380Z,93.40
2019-02-22T22:41:46.254Z,93.30
2019-02-22T22:46:48.130Z,93.30
2019-02-22T22:51:49.889Z,93.40
2019-02-22T22:56:51.625Z,93.30
2019-02-22T23:01:54.902Z,93.20
2019-02-22T23:06:56.373Z,93.30
2019-02-22T23:11:58.159Z,93.30
2019-02-22T23:16:59.831Z,93.30
2019-02-22T23:22:01.667Z,93.40
2019-02-22T23:27:03.061Z,93.50
2019-02-22T23:32:04.955Z,93.40
2019-02-22T23:37:06.476Z,93.40
2019-02-22T23:42:07.797Z,93.50
2019-02-22T23:47:09.828Z,93.60
2019-02-22T23:52:11.288Z,93.60
2019-02-22T23:57:12.667Z,93.60
